x

South Hatteras - 225 South Of Cape Hatteras (41002) Wave Buoy

12:50pm - Tue 21st Nov 2017 All times are EST. -5 hours from GMT.

  • Sig Wave height 5.2ft
  • Swell Direction
  • Peak Period 6s
  • Average Period 5s
  • Wind
    18mph, 25mph gusts
  • Sea Temp 77°f
  • Air Temp 73°f
  • Sea Pressure 1020mb
  • South Hatteras - 225 South Of Cape Hatteras
  • South Hatteras - 225 South Of Cape Hatteras

More Historic Weather Station data

Upgrade to MSW Pro to gain access to the past 30 days of data for over 8000 Wavebouys and Weather Stations around the globe.

Join

Comparision Forecast

View Surf forecast
   
Tue 11/21 12:50pm 5ft 6s 5s 18 25 mph 1020mb 77f 73f
11:50am 5ft 5s 5s 25 29 mph 1021mb 76f 73f
10:50am 5ft 5s 5s 20 22 mph 1022.3mb 76f 72f
9:50am 5ft 6s 5s 22 27 mph 1022.6mb 76f 71f
8:50am 4.5ft 5s 5s 22 27 mph 1022.8mb 76f 71f
6:50am 5ft 8s 5s 16 22 mph 1022.6mb 76f 70f
5:50am 4.5ft 8s 5s 18 22 mph 1022.3mb 76f 70f
4:50am 5ft 8s 5s 16 20 mph 1022.2mb 76f 70f
3:50am 4.5ft 7s 5s 16 20 mph 1022.2mb 76f 69f
2:50am 5ft 9s 6s 16 22 mph 1022.7mb 76f 69f
1:50am 4.5ft 9s 5s 16 20 mph 1023mb 76f 69f
12:50am 5ft 9s 6s 16 18 mph 1023.4mb 76f 69f
Mon 11/20 11:50pm 5ft 8s 6s 16 20 mph 1023.5mb 77f 69f
10:50pm 5ft 7s 6s 16 20 mph 1023.4mb 77f 69f
9:50pm 5ft 8s 6s 13 20 mph 1023.5mb 77f 68f
6:50pm 5ft 7s 6s 16 20 mph 1022.6mb 76f 67f
5:50pm 5.5ft 7s 6s 16 20 mph 1022.1mb 77f 67f
4:50pm 5ft 8s 6s 16 20 mph 1021.9mb 77f 67f
3:50pm 6ft 8s 6s 16 22 mph 1021.7mb 77f 67f
2:50pm 6ft 7s 6s 16 22 mph 1021.2mb 77f 66f
1:50pm 6ft 7s 6s 16 22 mph 1021.3mb 77f 66f
12:50pm 5.5ft 7s 6s 16 20 mph 1021.3mb 77f 66f
11:50am 6.5ft 7s 6s 16 20 mph 1021.5mb 77f 65f
10:50am 6.5ft 8s 6s 13 18 mph 1021.8mb 77f 65f
9:50am 6ft 7s 6s 16 20 mph 1021.6mb 76f 65f
8:50am 6.5ft 7s 6s 18 22 mph 1020.8mb 76f 65f
7:50am 7ft 7s 6s 18 22 mph 1019.9mb 76f 65f
6:50am 7ft 7s 6s 18 25 mph 1019.3mb 76f 65f
5:50am 7ft 8s 6s 22 27 mph 1018mb 76f 66f
4:50am 7ft 8s 6s 20 25 mph 1017mb 76f 66f
3:50am 8ft 8s 6s 22 27 mph 1016.6mb 76f 66f
2:50am 8ft 8s 6s 22 29 mph 1015.8mb 76f 67f
1:50am 8ft 8s 6s 22 29 mph 1015mb 76f 67f
12:50am 8ft 9s 6s 22 27 mph 1014.2mb 76f 68f
Sun 11/19 11:50pm 8ft 8s 6s 22 29 mph 1013.7mb 76f 69f
10:50pm 10ft 9s 7s 25 29 mph 1013mb 76f 69f
9:50pm 9.5ft 9s 6s 22 27 mph 1012.2mb 77f 70f
8:50pm 10ft 8s 6s 25 29 mph 1011.2mb 77f 71f
7:50pm 10.5ft 8s 6s 25 29 mph 1010.3mb 77f 72f
6:50pm 10ft 8s 7s 25 29 mph 1009.5mb 77f 71f
5:50pm 9.5ft 9s 6s 20 25 mph 1008.7mb 77f 71f
4:50pm 10ft 9s 6s 29 38 mph 1007.4mb 77f 76f
3:50pm 10ft 7s 6s 29 38 mph 1006.6mb 77f 76f
2:50pm 9.5ft 7s 6s 31 38 mph 1006.4mb 77f 76f
1:50pm 9ft 7s 6s 31 38 mph 1006.7mb 77f 76f
12:50pm 8ft 6s 5s 31 38 mph 1007.1mb 76f 76f
11:50am 7ft 7s 5s 29 34 mph 1008.5mb 76f 76f
10:50am 8ft 6s 5s 27 31 mph 1009.7mb 76f 76f
9:50am 7.5ft 6s 5s 27 31 mph 1010.2mb 76f 76f
8:50am 6ft 6s 5s 27 34 mph 1010.4mb 77f 76f
7:50am 5.5ft 5s 5s 27 34 mph 1010.1mb 77f 76f
6:50am 5ft 5s 5s 25 29 mph 1010.2mb 77f 75f
5:50am 5ft 5s 5s 25 29 mph 1010.3mb 77f 75f
4:50am 4.5ft 5s 4s 20 27 mph 1010.6mb 77f 75f
3:50am 4.5ft 5s 4s 20 25 mph 1011.2mb 77f 74f
2:50am 4.5ft 5s 4s 22 29 mph 1011.6mb 77f 74f
1:50am 4.5ft 4s 4s 25 31 mph 1012.1mb 77f 74f
12:50am 4ft 9s 4s 22 27 mph 1012.9mb 76f 73f
Sat 11/18 11:50pm 4ft 9s 5s 20 27 mph 1013.6mb 76f 73f
10:50pm 3.5ft 8s 5s 18 25 mph 1014.1mb 76f 73f
9:50pm 4ft 8s 5s 16 18 mph 1014.5mb 76f 72f
8:50pm 4ft 9s 6s 16 22 mph 1014.8mb 76f 72f
7:50pm 4ft 10s 7s 13 20 mph 1014.9mb 76f 71f
6:50pm 4.5ft 8s 7s 11 16 mph 1014.6mb 77f 71f
5:50pm 4.5ft 8s 7s 9 13 mph 1015mb 77f 71f
4:50pm 4.5ft 9s 7s 11 13 mph 1015.1mb 77f 71f
3:50pm 5ft 8s 7s 13 16 mph 1015.2mb 77f 71f
2:50pm 5.5ft 9s 7s 11 18 mph 1015.6mb 77f 71f
1:50pm 5.5ft 8s 7s 7 11 mph 1016mb 77f 70f
12:50pm 5.5ft 10s 7s 4 9 mph 1016.9mb 77f 70f
11:50am 5.5ft 8s 7s 9 13 mph 1017.6mb 77f 70f
10:50am 5ft 10s 7s 7 9 mph 1018.4mb 77f 70f
9:50am 6ft 9s 7s 4 9 mph 1018.9mb 77f 70f
8:50am 6ft 8s 7s 4 7 mph 1019.4mb 77f 69f
7:50am 6ft 12s 7s 4 11 mph 1019.2mb 77f 69f
6:50am 6ft 9s 7s 2 4 mph 1018.7mb 77f 68f
5:50am 7ft 9s 7s 4 7 mph 1018.5mb 77f 68f
4:50am 6ft 9s 7s 7 11 mph 1018mb 77f 68f
3:50am 7ft 9s 7s 7 11 mph 1018mb 77f 68f
2:50am 7ft 8s 7s 7 11 mph 1018.2mb 77f 68f
1:50am 7.5ft 8s 7s 11 18 mph 1018.6mb 77f 68f
12:50am 7ft 8s 7s 11 16 mph 1018.9mb 77f 68f
Fri 11/17 11:50pm 7ft 8s 7s 9 16 mph 1019mb 77f 68f
10:50pm 7ft 11s 7s 13 20 mph 1019mb 77f 68f
9:50pm 7ft 8s 7s 13 20 mph 1019.5mb 77f 68f
8:50pm 7ft 7s 7s 13 18 mph 1019.6mb 77f 67f
7:50pm 7ft 8s 7s 16 18 mph 1019mb 77f 68f